createdAt,value
2023-05-10T00:03:30.353Z,11.20
2023-05-10T00:08:20.270Z,11.10
2023-05-10T00:13:10.469Z,10.90
2023-05-10T00:17:55.400Z,11.00
2023-05-10T00:22:42.654Z,11.00
2023-05-10T00:27:44.215Z,10.90
2023-05-10T00:33:05.211Z,10.90
2023-05-10T00:38:10.837Z,10.80
2023-05-10T00:42:57.385Z,10.70
2023-05-10T00:47:47.538Z,10.80
2023-05-10T00:52:33.912Z,10.70
2023-05-10T00:57:38.127Z,10.40
2023-05-10T01:02:24.715Z,10.40
2023-05-10T01:07:13.232Z,10.50
2023-05-10T01:12:02.699Z,10.40
2023-05-10T01:17:07.097Z,10.50
2023-05-10T01:22:13.573Z,10.40
2023-05-10T01:27:32.353Z,10.30
2023-05-10T01:32:36.714Z,10.20
2023-05-10T01:37:38.586Z,10.00
2023-05-10T01:42:28.708Z,9.90
2023-05-10T01:47:18.579Z,10.00
2023-05-10T01:52:16.278Z,9.90
2023-05-10T01:57:08.673Z,9.90
2023-05-10T02:01:53.503Z,9.90
2023-05-10T02:06:54.668Z,9.90
2023-05-10T02:11:51.288Z,9.80
2023-05-10T02:16:36.455Z,9.60
2023-05-10T02:21:23.608Z,9.40
2023-05-10T02:26:08.601Z,9.20
2023-05-10T02:31:02.291Z,9.20
2023-05-10T02:35:45.959Z,9.00
2023-05-10T02:40:33.992Z,8.80
2023-05-10T02:45:39.882Z,8.60
2023-05-10T02:50:29.648Z,8.80
2023-05-10T02:55:17.254Z,8.80
2023-05-10T03:00:01.446Z,8.90
2023-05-10T03:04:49.623Z,8.90
2023-05-10T03:09:39.465Z,8.90
2023-05-10T03:15:18.758Z,8.70
2023-05-10T03:20:35.485Z,8.70
2023-05-10T03:25:23.131Z,8.70
2023-05-10T03:30:15.306Z,8.80
2023-05-10T03:35:01.363Z,8.80
2023-05-10T03:39:47.287Z,8.90
2023-05-10T03:44:34.321Z,9.00
2023-05-10T03:49:24.216Z,9.20
2023-05-10T03:54:10.809Z,9.20
2023-05-10T03:58:56.402Z,9.50
2023-05-10T04:03:48.830Z,9.80
2023-05-10T04:08:34.754Z,9.80
2023-05-10T04:13:24.323Z,9.80
2023-05-10T04:18:11.149Z,9.90
2023-05-10T04:22:58.355Z,10.00
2023-05-10T04:27:49.031Z,10.20
2023-05-10T04:32:34.179Z,10.40
2023-05-10T04:37:58.759Z,10.60
2023-05-10T04:42:46.930Z,10.80
2023-05-10T04:47:30.682Z,11.10
2023-05-10T04:52:21.745Z,11.20
2023-05-10T04:57:05.303Z,11.50
2023-05-10T05:02:15.953Z,11.70
2023-05-10T05:07:14.785Z,11.90
2023-05-10T05:12:04.035Z,12.00
2023-05-10T05:16:53.639Z,12.20
2023-05-10T05:21:42.906Z,12.40
2023-05-10T05:26:38.495Z,12.60
2023-05-10T05:31:31.700Z,12.90
2023-05-10T05:36:18.205Z,13.10
2023-05-10T05:41:10.056Z,13.30
2023-05-10T05:45:56.393Z,13.60
2023-05-10T05:50:42.872Z,13.60
2023-05-10T05:55:59.007Z,13.80
2023-05-10T06:00:52.972Z,14.30
2023-05-10T06:05:37.709Z,14.50
2023-05-10T06:10:38.928Z,14.90
2023-05-10T06:15:31.420Z,15.00
2023-05-10T06:20:20.722Z,15.10
2023-05-10T06:25:06.861Z,15.60
2023-05-10T06:30:02.148Z,15.60
2023-05-10T06:34:56.754Z,16.20
2023-05-10T06:39:49.565Z,16.50
2023-05-10T06:44:33.014Z,16.60
2023-05-10T06:49:42.456Z,17.00
2023-05-10T06:54:26.408Z,17.10
2023-05-10T06:59:14.558Z,17.40
2023-05-10T07:04:06.311Z,17.90
2023-05-10T07:08:49.749Z,18.20
2023-05-10T07:13:40.757Z,18.20
2023-05-10T07:23:47.009Z,18.80
2023-05-10T07:28:32.674Z,19.30
2023-05-10T07:33:22.120Z,19.50
2023-05-10T07:38:12.041Z,19.90
2023-05-10T07:42:57.380Z,20.00
2023-05-10T07:47:44.931Z,20.40
2023-05-10T07:52:32.864Z,20.80
2023-05-10T07:57:22.612Z,20.80
2023-05-10T08:02:29.167Z,20.00
2023-05-10T08:07:13.277Z,20.70
2023-05-10T08:12:02.887Z,21.10
2023-05-10T08:16:49.364Z,21.30
2023-05-10T08:21:36.799Z,21.00
2023-05-10T08:26:26.166Z,21.40
2023-05-10T08:31:20.342Z,21.60
2023-05-10T08:36:23.069Z,22.00
2023-05-10T08:41:08.525Z,22.50
2023-05-10T08:45:56.576Z,22.20
2023-05-10T08:50:45.012Z,22.20
2023-05-10T08:55:30.251Z,22.50
2023-05-10T09:00:36.925Z,23.10
2023-05-10T09:05:23.065Z,23.20
2023-05-10T09:10:11.190Z,23.10
2023-05-10T09:14:57.909Z,23.60
2023-05-10T09:19:45.357Z,24.10
2023-05-10T09:24:52.413Z,24.30
2023-05-10T09:29:42.704Z,24.00
2023-05-10T09:34:41.456Z,24.50
2023-05-10T09:39:59.142Z,24.60
2023-05-10T09:44:46.326Z,24.60
2023-05-10T09:49:36.910Z,24.70
2023-05-10T09:54:25.812Z,24.20
2023-05-10T09:59:14.803Z,24.60
2023-05-10T10:04:01.405Z,24.10
2023-05-10T10:13:54.937Z,23.70
2023-05-10T10:18:43.415Z,24.00
2023-05-10T10:23:48.354Z,23.50
2023-05-10T10:28:48.554Z,24.00
2023-05-10T10:33:53.757Z,24.30
2023-05-10T10:39:02.963Z,24.00
2023-05-10T10:43:46.879Z,24.40
2023-05-10T10:48:35.193Z,24.00
2023-05-10T10:53:22.786Z,22.70
2023-05-10T10:58:30.620Z,23.20
2023-05-10T11:03:26.532Z,23.30
2023-05-10T11:08:32.765Z,23.40
2023-05-10T11:13:51.662Z,24.00
2023-05-10T11:18:41.433Z,24.20
2023-05-10T11:23:35.117Z,24.00
2023-05-10T11:28:20.864Z,23.60
2023-05-10T11:33:05.795Z,24.20
2023-05-10T11:37:56.569Z,24.30
2023-05-10T11:42:44.430Z,24.00
2023-05-10T11:47:29.431Z,24.10
2023-05-10T11:52:22.421Z,24.00
2023-05-10T11:57:09.344Z,23.60
2023-05-10T12:01:53.155Z,24.00
2023-05-10T12:06:56.414Z,24.30
2023-05-10T12:12:24.000Z,24.50
2023-05-10T12:17:26.706Z,24.70
2023-05-10T12:22:30.715Z,24.60
2023-05-10T12:27:15.049Z,23.50
2023-05-10T12:32:05.396Z,22.80
2023-05-10T12:36:52.671Z,22.30
2023-05-10T12:41:43.636Z,22.10
2023-05-10T12:46:32.536Z,21.80
2023-05-10T12:51:28.133Z,21.70
2023-05-10T12:56:29.896Z,22.00
2023-05-10T13:01:22.193Z,21.10
2023-05-10T13:06:10.319Z,20.80
2023-05-10T13:10:56.521Z,21.10
2023-05-10T13:15:57.749Z,21.40
2023-05-10T13:20:48.033Z,21.30
2023-05-10T13:25:37.299Z,21.50
2023-05-10T13:30:26.852Z,21.60
2023-05-10T13:35:14.666Z,21.70
2023-05-10T13:40:05.149Z,22.10
2023-05-10T13:44:49.832Z,22.10
2023-05-10T13:49:38.095Z,22.20
2023-05-10T13:54:26.722Z,22.00
2023-05-10T13:59:16.718Z,22.40
2023-05-10T14:04:00.261Z,22.00
2023-05-10T14:08:48.719Z,22.00
2023-05-10T14:13:38.292Z,21.80
2023-05-10T14:18:24.782Z,21.70
2023-05-10T14:23:13.548Z,21.60
2023-05-10T14:28:00.424Z,20.60
2023-05-10T14:32:55.072Z,20.60
2023-05-10T14:37:38.752Z,20.40
2023-05-10T14:42:25.643Z,19.70
2023-05-10T14:47:16.027Z,19.60
2023-05-10T14:52:10.219Z,19.60
2023-05-10T14:57:06.433Z,19.40
2023-05-10T15:01:55.886Z,19.50
2023-05-10T15:06:41.965Z,19.50
2023-05-10T15:11:31.673Z,19.50
2023-05-10T15:16:21.346Z,19.90
2023-05-10T15:21:06.968Z,19.80
2023-05-10T15:25:56.886Z,19.80
2023-05-10T15:30:42.425Z,19.50
2023-05-10T15:35:32.790Z,19.30
2023-05-10T15:40:18.336Z,19.50
2023-05-10T15:45:08.330Z,18.70
2023-05-10T15:49:53.619Z,18.20
2023-05-10T15:54:44.370Z,17.90
2023-05-10T15:59:29.664Z,17.70
2023-05-10T16:04:16.377Z,17.40
2023-05-10T16:09:08.756Z,17.30
2023-05-10T16:13:54.249Z,17.30
2023-05-10T16:18:40.016Z,17.00
2023-05-10T16:23:32.179Z,17.20
2023-05-10T16:28:19.538Z,17.10
2023-05-10T16:33:09.119Z,17.20
2023-05-10T16:37:54.739Z,17.20
2023-05-10T16:42:41.296Z,17.30
2023-05-10T16:47:45.636Z,17.30
2023-05-10T16:52:36.069Z,16.80
2023-05-10T16:57:21.765Z,16.70
2023-05-10T17:02:11.366Z,16.70
2023-05-10T17:06:57.982Z,16.70
2023-05-10T17:11:44.553Z,16.70
2023-05-10T17:16:33.590Z,16.60
2023-05-10T17:21:21.804Z,16.70
2023-05-10T17:26:09.721Z,16.50
2023-05-10T17:31:02.573Z,16.50
2023-05-10T17:35:46.686Z,16.30
2023-05-10T17:40:35.336Z,16.10
2023-05-10T17:45:22.250Z,15.80
2023-05-10T17:50:14.885Z,15.80
2023-05-10T17:54:59.019Z,15.70
2023-05-10T17:59:42.606Z,15.80
2023-05-10T18:04:31.562Z,15.70
2023-05-10T18:09:24.271Z,15.40
2023-05-10T18:14:09.543Z,15.20
2023-05-10T18:18:59.308Z,15.10
2023-05-10T18:23:46.995Z,15.00
2023-05-10T18:28:37.128Z,14.90
2023-05-10T18:33:22.506Z,14.90
2023-05-10T18:38:08.011Z,14.70
2023-05-10T18:42:59.099Z,14.50
2023-05-10T18:47:46.223Z,14.40
2023-05-10T18:52:32.581Z,14.30
2023-05-10T18:57:21.261Z,14.20
2023-05-10T19:02:13.914Z,14.10
2023-05-10T19:06:57.391Z,13.90
2023-05-10T19:11:44.880Z,13.70
2023-05-10T19:16:37.713Z,13.40
2023-05-10T19:21:22.631Z,13.20
2023-05-10T19:26:11.769Z,12.90
2023-05-10T19:30:55.360Z,12.80
2023-05-10T19:35:45.984Z,12.80
2023-05-10T19:40:37.996Z,12.90
2023-05-10T19:45:21.531Z,12.90
2023-05-10T19:50:12.397Z,12.90
2023-05-10T19:54:58.165Z,12.90
2023-05-10T19:59:46.338Z,12.80
2023-05-10T20:04:33.946Z,12.70
2023-05-10T20:09:24.429Z,12.70
2023-05-10T20:14:11.483Z,12.40
2023-05-10T20:18:58.568Z,12.20
2023-05-10T20:23:46.925Z,11.90
2023-05-10T20:28:36.631Z,11.70
2023-05-10T20:33:20.140Z,11.60
2023-05-10T20:38:12.638Z,11.40
2023-05-10T20:42:58.031Z,11.20
2023-05-10T20:47:47.470Z,11.00
2023-05-10T20:52:36.853Z,10.90
2023-05-10T20:57:21.743Z,10.90
2023-05-10T21:02:10.993Z,10.80
2023-05-10T21:07:00.124Z,10.90
2023-05-10T21:11:45.512Z,10.70
2023-05-10T21:16:37.912Z,10.70
2023-05-10T21:21:21.649Z,10.60
2023-05-10T21:26:09.592Z,10.60
2023-05-10T21:31:00.524Z,10.70
2023-05-10T21:36:16.174Z,10.70
2023-05-10T21:41:07.252Z,10.60
2023-05-10T21:45:56.561Z,10.60
2023-05-10T21:50:43.862Z,10.60
2023-05-10T21:55:31.917Z,10.60
2023-05-10T22:00:19.356Z,10.60
2023-05-10T22:05:06.540Z,10.60
2023-05-10T22:09:55.924Z,10.50
2023-05-10T22:14:43.635Z,10.50
2023-05-10T22:19:30.216Z,10.40
2023-05-10T22:24:17.536Z,10.30
2023-05-10T22:29:06.216Z,10.20
2023-05-10T22:33:54.044Z,10.20
2023-05-10T22:38:43.190Z,10.20
2023-05-10T22:43:30.334Z,10.40
2023-05-10T22:48:20.481Z,10.40
2023-05-10T22:53:06.702Z,10.50
2023-05-10T22:57:55.998Z,10.50
2023-05-10T23:02:42.283Z,10.60
2023-05-10T23:07:31.682Z,10.70
2023-05-10T23:12:19.897Z,10.80
2023-05-10T23:17:09.851Z,10.90
2023-05-10T23:21:55.180Z,11.00
2023-05-10T23:26:43.544Z,11.10
2023-05-10T23:31:30.937Z,11.10
2023-05-10T23:36:21.267Z,11.20
2023-05-10T23:41:07.047Z,11.20
2023-05-10T23:45:56.826Z,11.20
2023-05-10T23:50:45.738Z,11.30
2023-05-10T23:55:32.059Z,11.20
